Time;durP1;ratioP1;P1;durP2;ratioP2;P2;SDS_P1;SDS_P2;PMS_P1;PMS_P2;Temp;Humidity;BMP_temperature;BMP_pressure;BME280_temperature;BME280_humidity;BME280_pressure;Samples;Min_cycle;Max_cycle;Signal;HPM_P1;HPM_P2
2021/03/19 00:02:08;;;;;;;36.50;14.95;;;;;;;0.24;85.35;101961.44;5034498;28;20037;-68
2021/03/19 00:04:33;;;;;;;35.75;14.60;;;;;;;0.20;85.40;101972.44;5035395;28;20064;-69
2021/03/19 00:06:59;;;;;;;38.25;15.05;;;;;;;0.20;85.32;101968.00;5037380;28;20044;-70
2021/03/19 00:09:24;;;;;;;40.47;15.98;;;;;;;0.15;85.14;101970.25;5037385;28;20032;-69
2021/03/19 00:11:50;;;;;;;38.30;15.73;;;;;;;0.10;85.34;101969.03;5036036;28;20070;-70
2021/03/19 00:14:16;;;;;;;40.83;16.55;;;;;;;0.01;85.38;101970.78;5035525;28;20029;-68
2021/03/19 00:16:41;;;;;;;39.85;17.08;;;;;;;-0.12;86.10;101981.66;5035530;28;20029;-69
2021/03/19 00:19:08;;;;;;;47.67;16.80;;;;;;;-0.18;85.56;101973.50;5033077;28;20386;-70
2021/03/19 00:21:35;;;;;;;43.05;16.95;;;;;;;-0.27;86.09;101977.03;5040240;28;20034;-68
2021/03/19 00:24:00;;;;;;;47.03;17.40;;;;;;;-0.31;85.85;101979.97;5033223;28;20025;-68
2021/03/19 00:26:26;;;;;;;44.97;18.35;;;;;;;-0.39;86.09;101986.94;5030804;28;20024;-69
2021/03/19 00:28:52;;;;;;;57.05;20.75;;;;;;;-0.49;86.59;101971.19;5033721;28;20063;-70
2021/03/19 00:31:18;;;;;;;51.90;19.27;;;;;;;-0.62;87.75;101979.41;5035751;28;20051;-68
2021/03/19 00:33:44;;;;;;;48.55;19.13;;;;;;;-0.69;87.66;101980.97;5040348;28;20036;-69
2021/03/19 00:36:09;;;;;;;51.17;19.88;;;;;;;-0.72;87.77;101988.31;5034879;28;20119;-68
2021/03/19 00:38:35;;;;;;;52.15;19.08;;;;;;;-0.70;87.76;101991.66;5031726;28;20400;-68
2021/03/19 00:41:01;;;;;;;53.10;19.35;;;;;;;-0.70;87.78;101983.75;5036200;28;20033;-70
2021/03/19 00:43:26;;;;;;;56.55;21.45;;;;;;;-0.72;88.23;101985.66;5032888;28;20572;-69
2021/03/19 00:45:52;;;;;;;52.33;18.42;;;;;;;-0.68;87.54;101990.53;5033030;28;20036;-70
2021/03/19 00:48:18;;;;;;;64.15;22.75;;;;;;;-0.69;88.00;101988.88;5032040;28;20048;-69
2021/03/19 00:50:44;;;;;;;62.75;23.23;;;;;;;-0.57;87.45;101994.75;5034568;28;20040;-68
2021/03/19 00:53:10;;;;;;;64.32;23.70;;;;;;;-0.49;86.82;101994.06;5036353;28;20037;-68
2021/03/19 00:55:36;;;;;;;68.30;23.30;;;;;;;-0.43;86.85;101999.56;5038111;28;20033;-68
2021/03/19 00:58:03;;;;;;;51.67;19.27;;;;;;;-0.37;86.04;101998.97;5033723;28;20040;-68
2021/03/19 01:00:31;;;;;;;56.30;22.30;;;;;;;-0.36;86.30;102000.66;5040014;28;20123;-68
2021/03/19 01:02:57;;;;;;;64.70;23.73;;;;;;;-0.42;86.88;101995.13;5034670;28;20124;-68
2021/03/19 01:05:26;;;;;;;56.95;21.40;;;;;;;-0.43;86.05;101991.66;5036326;28;20566;-69
2021/03/19 01:07:52;;;;;;;58.80;22.67;;;;;;;-0.47;86.37;101998.19;5036813;28;20033;-69
2021/03/19 01:10:26;;;;;;;66.35;23.00;;;;;;;-0.47;86.49;102003.47;5037859;28;20033;-69
2021/03/19 01:12:52;;;;;;;66.65;24.30;;;;;;;-0.45;86.21;102006.78;5031382;28;20040;-69
2021/03/19 01:15:18;;;;;;;68.90;25.48;;;;;;;-0.44;86.03;102000.53;5028703;28;20033;-68
2021/03/19 01:17:44;;;;;;;68.80;21.38;;;;;;;-0.44;86.34;101997.91;5034749;28;20040;-69
2021/03/19 01:20:13;;;;;;;68.40;25.70;;;;;;;-0.44;86.58;102000.53;5028219;28;20396;-70
2021/03/19 01:22:38;;;;;;;70.75;27.40;;;;;;;-0.42;86.58;102005.66;5029658;28;20395;-68
2021/03/19 01:25:10;;;;;;;68.97;24.52;;;;;;;-0.42;86.49;102003.84;5033479;28;20032;-68
2021/03/19 01:27:35;;;;;;;78.75;26.85;;;;;;;-0.41;86.26;101996.78;5029704;28;20676;-69
2021/03/19 01:30:01;;;;;;;73.30;27.35;;;;;;;-0.42;85.97;102001.22;5032613;28;20029;-70
2021/03/19 01:32:26;;;;;;;85.13;31.00;;;;;;;-0.48;86.77;102003.63;5033869;28;20510;-69
2021/03/19 01:34:53;;;;;;;86.60;29.23;;;;;;;-0.52;86.89;102000.44;5033655;28;20359;-70
2021/03/19 01:37:18;;;;;;;80.82;29.27;;;;;;;-0.57;87.24;102007.94;5034363;28;20112;-70
2021/03/19 01:39:44;;;;;;;93.45;31.55;;;;;;;-0.63;87.51;102008.50;5033698;28;20129;-69
2021/03/19 01:42:10;;;;;;;94.03;32.30;;;;;;;-0.75;89.20;101999.94;5033692;28;20021;-69
2021/03/19 01:44:53;;;;;;;82.43;32.25;;;;;;;-0.81;89.39;102002.34;5030911;28;20039;-69
2021/03/19 01:47:55;;;;;;;88.15;33.13;;;;;;;-0.95;90.34;102003.63;5033785;28;20099;-69
2021/03/19 01:50:58;;;;;;;124.13;37.15;;;;;;;-1.02;91.20;101998.09;5029842;28;20034;-69
2021/03/19 01:54:01;;;;;;;94.40;32.35;;;;;;;-1.06;90.73;101996.72;5032852;28;20533;-68
2021/03/19 01:57:04;;;;;;;91.20;32.22;;;;;;;-1.09;90.02;101996.16;5035136;28;20029;-69
2021/03/19 02:00:07;;;;;;;93.05;30.95;;;;;;;-1.15;90.00;102000.19;5030621;28;20497;-69
2021/03/19 02:03:09;;;;;;;112.72;36.17;;;;;;;-1.30;91.52;101991.91;5034196;28;20025;-68
2021/03/19 02:06:12;;;;;;;89.70;33.22;;;;;;;-1.30;91.00;101991.06;5041955;28;20060;-69
2021/03/19 02:09:15;;;;;;;106.03;33.63;;;;;;;-1.33;90.80;101994.81;5032209;28;20114;-69
2021/03/19 02:12:18;;;;;;;90.22;31.80;;;;;;;-1.35;90.45;102002.00;5035336;28;20227;-68
2021/03/19 02:15:21;;;;;;;101.38;33.08;;;;;;;-1.47;90.72;102002.28;5040327;28;20072;-69
2021/03/19 02:18:23;;;;;;;107.82;34.42;;;;;;;-1.50;90.76;102003.41;5032859;28;20109;-69
2021/03/19 02:21:26;;;;;;;90.38;29.75;;;;;;;-1.54;90.67;102008.13;5032725;28;20095;-68
2021/03/19 02:24:29;;;;;;;98.85;33.67;;;;;;;-1.63;90.98;102014.19;5040306;28;20490;-68
2021/03/19 02:27:32;;;;;;;121.82;35.90;;;;;;;-1.62;91.78;102002.69;5043109;28;20025;-70
2021/03/19 02:30:35;;;;;;;103.07;32.47;;;;;;;-1.64;90.82;102009.06;5032826;28;20115;-69
2021/03/19 02:33:00;;;;;;;116.00;36.20;;;;;;;-1.68;91.89;102003.25;5038394;28;20079;-69
2021/03/19 02:35:26;;;;;;;131.50;39.30;;;;;;;-1.75;93.70;102010.03;5043383;28;20033;-68
2021/03/19 02:37:51;;;;;;;160.75;41.85;;;;;;;-1.76;94.23;102005.75;5040474;28;20036;-69
2021/03/19 02:40:24;;;;;;;160.05;42.30;;;;;;;-1.74;94.33;102010.88;5038706;28;20069;-68
2021/03/19 02:42:51;;;;;;;120.57;38.75;;;;;;;-1.79;92.91;102010.47;5037581;28;20029;-70
2021/03/19 02:45:20;;;;;;;112.43;32.78;;;;;;;-1.76;92.95;102013.63;5043428;28;20029;-70
2021/03/19 02:47:46;;;;;;;119.35;35.95;;;;;;;-1.85;92.45;102023.16;5040496;28;20086;-69
2021/03/19 02:50:12;;;;;;;115.07;36.33;;;;;;;-1.92;92.58;102019.41;5040219;28;20064;-68
2021/03/19 02:52:41;;;;;;;132.80;36.20;;;;;;;-2.02;93.77;102018.56;5037076;28;20029;-69
2021/03/19 02:55:09;;;;;;;115.28;35.83;;;;;;;-1.99;93.77;102022.69;5041899;28;20028;-70
2021/03/19 02:57:35;;;;;;;120.38;36.35;;;;;;;-1.99;93.65;102025.31;5040992;28;20222;-69
2021/03/19 03:00:01;;;;;;;124.95;34.63;;;;;;;-2.04;93.63;102032.78;5033996;28;20498;-68
2021/03/19 03:02:26;;;;;;;103.25;31.33;;;;;;;-1.95;92.89;102034.63;5035720;28;20033;-69
2021/03/19 03:04:52;;;;;;;88.30;28.00;;;;;;;-1.96;93.12;102027.72;5040392;28;20112;-69
2021/03/19 03:07:24;;;;;;;92.55;27.35;;;;;;;-1.94;92.25;102036.28;5043073;28;20025;-70
2021/03/19 03:09:49;;;;;;;77.38;25.63;;;;;;;-1.91;92.00;102039.47;5035791;28;20045;-69
2021/03/19 03:12:15;;;;;;;78.03;24.25;;;;;;;-1.88;91.94;102035.72;5036722;28;20025;-69
2021/03/19 03:14:41;;;;;;;79.35;23.92;;;;;;;-1.88;91.84;102041.81;5041106;28;20037;-70
2021/03/19 03:17:07;;;;;;;81.20;25.05;;;;;;;-1.89;91.35;102039.31;5039923;28;20086;-69
2021/03/19 03:19:33;;;;;;;77.03;24.73;;;;;;;-1.90;91.72;102045.53;5031887;28;20048;-69
2021/03/19 03:21:59;;;;;;;81.90;25.67;;;;;;;-1.94;91.83;102041.53;5034522;28;20017;-69
2021/03/19 03:24:26;;;;;;;73.47;23.55;;;;;;;-1.92;91.48;102052.72;5040609;28;20029;-70
2021/03/19 03:26:52;;;;;;;68.38;23.33;;;;;;;-1.97;91.96;102047.88;5037461;28;20104;-69
2021/03/19 03:29:20;;;;;;;77.70;25.02;;;;;;;-2.05;92.05;102044.25;5040395;28;20136;-69
2021/03/19 03:31:46;;;;;;;93.63;25.70;;;;;;;-2.08;91.71;102049.78;5037028;28;20025;-70
2021/03/19 03:34:12;;;;;;;94.32;26.38;;;;;;;-2.15;91.95;102050.31;5035990;28;20533;-68
2021/03/19 03:36:40;;;;;;;79.65;24.40;;;;;;;-2.13;92.29;102052.81;5040632;28;20029;-69
2021/03/19 03:39:09;;;;;;;64.75;21.17;;;;;;;-2.12;91.82;102054.47;5032431;28;20112;-71
2021/03/19 03:41:35;;;;;;;65.38;21.35;;;;;;;-2.07;90.90;102057.53;5034323;28;20032;-69
2021/03/19 03:44:01;;;;;;;82.85;25.98;;;;;;;-2.19;92.52;102048.91;5035398;28;20028;-68
2021/03/19 03:46:27;;;;;;;72.15;22.50;;;;;;;-2.25;92.34;102044.19;5037980;28;20539;-69
2021/03/19 03:48:56;;;;;;;56.75;20.70;;;;;;;-2.22;91.49;102049.19;5033211;28;20490;-69
2021/03/19 03:51:22;;;;;;;56.83;20.73;;;;;;;-2.20;90.90;102052.50;5030743;28;20029;-70
2021/03/19 03:53:48;;;;;;;72.97;22.08;;;;;;;-2.19;91.03;102051.53;5033834;28;20392;-69
2021/03/19 03:56:14;;;;;;;64.43;20.27;;;;;;;-2.17;90.49;102052.22;5039131;28;20112;-70
2021/03/19 03:58:40;;;;;;;57.35;20.52;;;;;;;-2.14;89.98;102062.50;5035864;28;20117;-69
2021/03/19 04:01:07;;;;;;;60.30;20.40;;;;;;;-2.08;90.48;102060.28;5033442;28;20029;-68
2021/03/19 04:03:32;;;;;;;71.18;22.33;;;;;;;-1.95;90.31;102063.50;5029263;28;20020;-68
2021/03/19 04:05:58;;;;;;;66.68;22.52;;;;;;;-1.85;90.09;102062.56;5034416;28;20036;-69
2021/03/19 04:08:27;;;;;;;59.40;19.38;;;;;;;-1.76;89.53;102066.19;5032073;28;20029;-69
2021/03/19 04:10:55;;;;;;;41.58;16.75;;;;;;;-1.66;89.23;102066.19;5034488;28;20026;-69
2021/03/19 04:13:22;;;;;;;55.58;18.02;;;;;;;-1.71;89.33;102068.41;5037242;28;20979;-70
2021/03/19 04:15:50;;;;;;;58.63;18.33;;;;;;;-1.68;89.01;102068.13;5034460;28;20071;-70
2021/03/19 04:18:15;;;;;;;45.88;16.60;;;;;;;-1.67;89.47;102064.53;5036848;28;20032;-69
2021/03/19 04:20:44;;;;;;;44.63;17.95;;;;;;;-1.63;88.78;102076.41;5033902;28;20033;-68
2021/03/19 04:23:09;;;;;;;49.28;17.30;;;;;;;-1.56;88.75;102082.81;5035567;28;20049;-69
2021/03/19 04:25:35;;;;;;;41.70;16.13;;;;;;;-1.48;88.36;102084.75;5033936;28;20559;-69
2021/03/19 04:28:13;;;;;;;40.25;16.27;;;;;;;-1.41;88.00;102088.50;5032039;28;20021;-70
2021/03/19 04:30:41;;;;;;;34.67;15.15;;;;;;;-1.37;88.34;102079.38;5036803;28;20121;-69
2021/03/19 04:33:10;;;;;;;38.03;15.73;;;;;;;-1.41;87.83;102076.19;5031380;28;20108;-70
2021/03/19 04:35:36;;;;;;;56.78;18.02;;;;;;;-1.35;87.55;102080.06;5031458;28;20050;-68
2021/03/19 04:38:12;;;;;;;43.38;16.02;;;;;;;-1.33;87.35;102083.38;5033914;28;20024;-70
2021/03/19 04:40:41;;;;;;;38.70;15.65;;;;;;;-1.27;87.39;102082.81;5030673;28;20052;-70
2021/03/19 04:43:08;;;;;;;38.22;17.63;;;;;;;-1.24;87.17;102082.56;5037973;28;20021;-69
2021/03/19 04:45:40;;;;;;;71.30;20.20;;;;;;;-1.26;86.94;102081.84;5039136;28;22015;-69
2021/03/19 04:48:06;;;;;;;56.88;18.60;;;;;;;-1.24;87.13;102082.56;5031692;28;20580;-69
2021/03/19 04:50:32;;;;;;;88.97;24.52;;;;;;;-1.21;86.85;102087.53;5029971;28;20095;-69
2021/03/19 04:52:58;;;;;;;56.30;19.35;;;;;;;-1.19;86.46;102098.75;5033554;28;20412;-68
2021/03/19 04:55:24;;;;;;;57.70;20.00;;;;;;;-1.20;87.58;102086.56;5036819;28;20219;-69
2021/03/19 04:57:49;;;;;;;46.50;18.00;;;;;;;-1.15;86.71;102089.63;5033115;28;20112;-69
2021/03/19 05:00:15;;;;;;;60.40;20.73;;;;;;;-1.14;87.15;102083.38;5036298;28;20451;-69
2021/03/19 05:02:44;;;;;;;67.47;22.67;;;;;;;-1.15;86.88;102086.97;5038598;28;20917;-69
2021/03/19 05:05:17;;;;;;;50.03;18.85;;;;;;;-1.22;87.19;102089.34;5031049;28;20035;-68
2021/03/19 05:07:43;;;;;;;50.03;19.40;;;;;;;-1.19;87.37;102095.28;5029863;28;20171;-69
2021/03/19 05:10:10;;;;;;;49.80;20.80;;;;;;;-1.15;87.00;102097.50;5032553;28;20140;-69
2021/03/19 05:12:36;;;;;;;63.30;21.75;;;;;;;-1.13;87.39;102100.81;5038109;28;20094;-69
2021/03/19 05:15:03;;;;;;;85.55;25.83;;;;;;;-1.11;87.47;102100.69;5032190;28;20021;-69
2021/03/19 05:17:30;;;;;;;97.10;28.17;;;;;;;-1.18;88.25;102102.22;5032218;28;20080;-69
2021/03/19 05:19:57;;;;;;;102.80;28.70;;;;;;;-1.15;87.31;102096.69;5037869;28;20029;-69
2021/03/19 05:22:23;;;;;;;77.15;24.10;;;;;;;-1.14;87.76;102107.06;5035568;28;20371;-71
2021/03/19 05:24:49;;;;;;;96.28;29.17;;;;;;;-1.10;87.73;102100.53;5031816;28;20024;-69
2021/03/19 05:27:14;;;;;;;97.00;27.92;;;;;;;-1.05;87.25;102105.41;5035890;28;20029;-69
2021/03/19 05:29:40;;;;;;;123.55;32.17;;;;;;;-1.05;87.98;102108.03;5037189;28;20037;-69
2021/03/19 05:32:06;;;;;;;202.98;37.97;;;;;;;-1.14;89.04;102109.69;5032406;28;20044;-68
2021/03/19 05:34:31;;;;;;;117.78;32.63;;;;;;;-0.99;87.68;102107.47;5032928;28;20021;-68
2021/03/19 05:36:57;;;;;;;130.88;34.60;;;;;;;-0.98;87.70;102109.97;5041690;28;20123;-68
2021/03/19 05:39:22;;;;;;;117.45;33.33;;;;;;;-0.84;86.76;102107.88;5033668;28;20036;-70
2021/03/19 05:41:48;;;;;;;110.18;33.33;;;;;;;-0.80;86.88;102111.88;5040888;28;20483;-70
2021/03/19 05:44:19;;;;;;;184.52;40.72;;;;;;;-0.84;87.22;102113.16;5041094;28;20037;-70
2021/03/19 05:46:55;;;;;;;135.18;35.75;;;;;;;-0.84;87.57;102118.41;5042066;28;20037;-70
2021/03/19 05:49:33;;;;;;;105.10;31.83;;;;;;;-0.70;86.31;102110.09;5036982;28;20079;-70
2021/03/19 05:52:02;;;;;;;118.22;32.67;;;;;;;-0.60;86.08;102116.16;5043401;28;20033;-70
2021/03/19 05:54:34;;;;;;;96.53;31.58;;;;;;;-0.54;85.93;102122.63;5041964;28;20510;-70
2021/03/19 05:57:00;;;;;;;76.97;27.13;;;;;;;-0.44;86.10;102123.47;5039524;28;20425;-70
2021/03/19 05:59:26;;;;;;;82.35;26.48;;;;;;;-0.31;85.48;102124.00;5039646;28;20039;-70
2021/03/19 06:01:52;;;;;;;65.40;24.15;;;;;;;-0.20;85.05;102121.16;5036782;28;20021;-70
2021/03/19 06:04:21;;;;;;;77.63;24.77;;;;;;;-0.06;84.56;102122.50;5037455;28;20033;-70
2021/03/19 06:06:52;;;;;;;69.50;24.25;;;;;;;0.00;84.76;102121.94;5033902;28;20044;-70
2021/03/19 06:09:27;;;;;;;75.10;23.88;;;;;;;0.05;85.03;102124.97;5047452;28;20376;-70
2021/03/19 06:12:18;;;;;;;74.55;24.17;;;;;;;0.12;84.34;102131.31;5033887;28;20056;-70
2021/03/19 06:14:52;;;;;;;62.22;20.00;;;;;;;0.17;84.08;102133.50;5035155;28;20065;-70
2021/03/19 06:17:28;;;;;;;65.78;23.73;;;;;;;0.20;84.19;102134.06;5037038;28;20045;-70
2021/03/19 06:20:03;;;;;;;64.93;22.83;;;;;;;0.20;84.31;102139.31;5047180;28;20033;-70
2021/03/19 06:22:42;;;;;;;61.20;22.27;;;;;;;0.24;84.17;102143.31;5033541;28;20036;-70
2021/03/19 06:25:27;;;;;;;70.07;28.02;;;;;;;0.20;84.77;102146.41;5036730;28;20026;-71
2021/03/19 06:28:02;;;;;;;73.93;27.73;;;;;;;0.26;84.13;102148.44;5032484;28;20163;-70
2021/03/19 06:30:37;;;;;;;68.15;26.60;;;;;;;0.25;84.31;102152.06;5032361;28;20771;-70
2021/03/19 06:33:06;;;;;;;59.03;21.55;;;;;;;0.18;85.11;102148.34;5031808;28;20025;-70
2021/03/19 06:35:36;;;;;;;56.97;20.88;;;;;;;0.19;85.21;102161.41;5034488;28;20041;-70
2021/03/19 06:38:20;;;;;;;65.65;20.30;;;;;;;0.13;85.40;102169.03;5033359;28;20672;-70
2021/03/19 06:40:46;;;;;;;61.63;20.20;;;;;;;0.11;86.09;102169.19;5034191;28;20029;-70
2021/03/19 06:43:22;;;;;;;60.80;20.92;;;;;;;0.10;85.76;102167.53;5032430;28;20083;-70
2021/03/19 06:46:07;;;;;;;50.03;19.27;;;;;;;0.16;85.82;102172.19;5033091;28;20055;-69
2021/03/19 06:48:53;;;;;;;50.28;19.33;;;;;;;0.18;85.62;102172.91;5036187;28;20690;-69
2021/03/19 06:51:24;;;;;;;40.55;16.02;;;;;;;0.26;85.68;102170.38;5037591;28;20041;-70
2021/03/19 06:54:15;;;;;;;37.70;14.52;;;;;;;0.28;85.96;102176.31;5033250;28;20043;-69
2021/03/19 06:57:00;;;;;;;33.85;14.13;;;;;;;0.41;84.97;102183.06;5031788;28;20152;-70
2021/03/19 06:59:27;;;;;;;29.13;13.07;;;;;;;0.48;84.60;102186.78;5029859;28;20494;-70
2021/03/19 07:01:53;;;;;;;31.80;13.55;;;;;;;0.53;84.68;102192.44;5034845;28;20029;-70
2021/03/19 07:04:47;;;;;;;29.23;13.48;;;;;;;0.62;84.49;102196.84;5037046;28;20098;-70
2021/03/19 07:07:38;;;;;;;31.73;12.75;;;;;;;0.76;83.84;102198.97;5031571;28;20040;-71
2021/03/19 07:10:29;;;;;;;30.65;15.70;;;;;;;0.74;84.54;102203.56;5034949;28;20563;-70
2021/03/19 07:13:13;;;;;;;30.05;14.02;;;;;;;0.89;83.43;102199.44;5032487;28;20087;-70
2021/03/19 07:15:48;;;;;;;27.00;12.93;;;;;;;0.93;83.33;102199.16;5031876;28;20090;-70
2021/03/19 07:18:33;;;;;;;22.60;11.70;;;;;;;0.99;83.38;102196.75;5038236;28;20104;-70
2021/03/19 07:21:20;;;;;;;20.80;9.35;;;;;;;1.25;82.52;102210.00;5035364;28;20029;-69
2021/03/19 07:23:59;;;;;;;16.05;8.50;;;;;;;1.55;81.68;102192.13;5035279;28;20429;-69
2021/03/19 07:26:31;;;;;;;14.57;8.07;;;;;;;1.78;81.24;102206.47;5035566;28;20211;-69
2021/03/19 07:29:25;;;;;;;16.92;8.60;;;;;;;1.95;80.29;102205.59;5033113;28;20039;-70
2021/03/19 07:32:10;;;;;;;16.77;8.40;;;;;;;2.05;80.08;102206.34;5036811;28;20632;-70
2021/03/19 07:34:45;;;;;;;12.77;7.97;;;;;;;2.20;79.40;102217.16;5038625;28;20116;-70
2021/03/19 07:37:17;;;;;;;15.95;8.65;;;;;;;2.12;79.76;102219.75;5036240;28;20028;-70
2021/03/19 07:40:07;;;;;;;12.75;7.78;;;;;;;2.16;80.14;102218.47;5036148;28;20056;-70
2021/03/19 07:43:10;;;;;;;12.73;6.78;;;;;;;2.17;79.64;102221.94;5038432;28;20056;-71
2021/03/19 07:45:57;;;;;;;15.93;6.72;;;;;;;2.15;80.05;102213.31;5029221;28;20029;-71
2021/03/19 07:48:50;;;;;;;14.30;7.28;;;;;;;2.30;80.03;102217.03;5041380;28;20025;-70
2021/03/19 07:51:24;;;;;;;16.30;7.20;;;;;;;2.49;79.39;102215.97;5039239;28;20068;-70
2021/03/19 07:54:04;;;;;;;15.43;7.65;;;;;;;2.50;79.00;102223.75;5035408;28;20487;-71
2021/03/19 07:56:43;;;;;;;16.13;7.45;;;;;;;2.85;78.51;102228.00;5036701;28;20035;-71
2021/03/19 07:59:30;;;;;;;15.30;7.70;;;;;;;3.26;77.62;102226.28;5036145;28;20033;-70
2021/03/19 08:02:17;;;;;;;13.50;7.10;;;;;;;3.39;77.11;102228.44;5036524;28;20500;-70
2021/03/19 08:05:08;;;;;;;15.68;7.63;;;;;;;3.24;77.21;102233.56;5035975;28;20795;-71
2021/03/19 08:07:41;;;;;;;13.40;6.82;;;;;;;3.15;77.29;102239.84;5036969;28;20150;-71
2021/03/19 08:10:23;;;;;;;14.25;6.32;;;;;;;2.90;77.77;102241.59;5036788;28;21475;-71
2021/03/19 08:13:09;;;;;;;10.25;6.32;;;;;;;2.89;77.92;102255.84;5034759;28;20040;-70
2021/03/19 08:15:41;;;;;;;11.68;6.38;;;;;;;2.86;78.35;102255.31;5035439;28;20021;-70
2021/03/19 08:18:37;;;;;;;12.48;6.93;;;;;;;3.09;78.03;102264.31;5034742;28;20150;-70
2021/03/19 08:21:05;;;;;;;11.13;5.78;;;;;;;3.20;77.73;102264.00;5029733;28;20340;-70
2021/03/19 08:23:42;;;;;;;12.52;5.75;;;;;;;3.28;76.74;102266.69;5036837;28;20029;-71
2021/03/19 08:26:18;;;;;;;11.95;6.75;;;;;;;3.27;77.59;102278.28;5033962;28;20060;-70
2021/03/19 08:29:15;;;;;;;11.38;5.78;;;;;;;3.30;78.38;102279.75;5031468;28;20526;-70
2021/03/19 08:31:50;;;;;;;8.40;4.63;;;;;;;3.09;78.06;102279.38;5034564;28;20037;-70
2021/03/19 08:34:48;;;;;;;11.30;5.35;;;;;;;3.03;78.35;102289.63;5034881;28;20422;-70
2021/03/19 08:37:38;;;;;;;9.73;4.55;;;;;;;3.06;78.62;102285.84;5038276;28;20037;-70
2021/03/19 08:40:12;;;;;;;8.05;3.78;;;;;;;3.04;77.91;102285.16;5037205;28;20025;-71
2021/03/19 08:42:40;;;;;;;7.13;3.70;;;;;;;2.84;78.28;102284.59;5050466;28;20051;-71
2021/03/19 08:45:21;;;;;;;7.53;3.55;;;;;;;2.77;77.76;102288.88;5036896;28;20025;-71
2021/03/19 08:47:50;;;;;;;8.85;3.58;;;;;;;2.46;78.30;102299.13;5035146;28;20032;-71
2021/03/19 08:50:15;;;;;;;5.20;3.55;;;;;;;2.26;78.91;102292.38;5037331;28;20021;-70
2021/03/19 08:53:00;;;;;;;5.25;3.17;;;;;;;2.15;78.93;102287.34;5036014;28;20033;-70
2021/03/19 08:55:28;;;;;;;5.27;3.20;;;;;;;2.30;78.47;102291.91;5036617;28;20049;-70
2021/03/19 08:57:57;;;;;;;8.68;3.78;;;;;;;2.31;78.70;102298.03;5037749;28;20298;-70
2021/03/19 09:00:25;;;;;;;5.05;2.80;;;;;;;2.52;78.02;102297.69;5040235;28;20044;-71
2021/03/19 09:03:02;;;;;;;5.75;3.05;;;;;;;2.64;77.17;102297.25;5039235;28;20056;-72
2021/03/19 09:05:35;;;;;;;5.00;2.50;;;;;;;3.27;76.52;102294.16;5038750;28;20437;-70
2021/03/19 09:08:18;;;;;;;5.90;2.38;;;;;;;3.41;75.71;102299.81;5036271;28;20029;-70
2021/03/19 09:10:44;;;;;;;7.85;2.50;;;;;;;3.70;74.93;102299.34;5034447;28;20460;-70
2021/03/19 09:13:18;;;;;;;6.68;2.42;;;;;;;3.60;74.85;102294.22;5036910;28;20024;-70
2021/03/19 09:15:46;;;;;;;3.83;3.50;;;;;;;3.86;74.63;102300.19;5037793;28;20415;-70
2021/03/19 09:18:12;;;;;;;5.03;2.25;;;;;;;4.21;73.65;102295.53;5037887;28;20071;-71
2021/03/19 09:20:40;;;;;;;5.45;2.20;;;;;;;4.48;71.95;102303.09;5035557;28;20052;-70
2021/03/19 09:23:08;;;;;;;5.93;2.47;;;;;;;4.64;71.40;102298.72;5037247;28;20112;-70
2021/03/19 09:25:40;;;;;;;5.28;1.73;;;;;;;4.84;70.87;102305.28;5036818;28;20275;-72
2021/03/19 09:28:35;;;;;;;3.05;2.08;;;;;;;4.84;70.10;102313.25;5030761;28;20043;-71
2021/03/19 09:31:07;;;;;;;2.70;1.50;;;;;;;4.83;68.76;102311.59;5037812;28;20395;-71
2021/03/19 09:33:45;;;;;;;3.15;1.50;;;;;;;4.76;67.62;102305.34;5038962;28;20199;-71
2021/03/19 09:36:48;;;;;;;2.78;1.73;;;;;;;4.68;69.25;102313.34;5037093;28;20033;-70
2021/03/19 09:39:52;;;;;;;2.50;1.73;;;;;;;4.42;68.83;102308.25;5033738;28;21003;-70
2021/03/19 09:42:36;;;;;;;2.90;1.65;;;;;;;4.66;69.57;102320.63;5034911;28;20025;-72
2021/03/19 09:45:02;;;;;;;3.90;2.17;;;;;;;4.79;69.29;102318.25;5031779;28;20029;-70
2021/03/19 09:47:43;;;;;;;5.00;1.77;;;;;;;4.61;67.71;102320.31;5035536;28;20054;-70
2021/03/19 09:50:13;;;;;;;4.18;1.60;;;;;;;4.37;68.89;102321.22;5039366;28;20084;-70
2021/03/19 09:53:22;;;;;;;7.13;1.98;;;;;;;4.20;68.00;102320.41;5035388;28;20504;-70
2021/03/19 09:55:51;;;;;;;4.60;1.85;;;;;;;3.71;68.53;102325.69;5032525;28;20056;-72
2021/03/19 09:58:24;;;;;;;2.67;1.90;;;;;;;3.93;67.99;102330.34;5038990;28;20176;-70
2021/03/19 10:00:55;;;;;;;5.10;2.00;;;;;;;4.36;68.26;102327.50;5036931;28;20042;-71
2021/03/19 10:03:21;;;;;;;2.83;2.22;;;;;;;4.38;67.18;102331.66;5034023;28;20021;-71
2021/03/19 10:05:47;;;;;;;2.72;2.28;;;;;;;4.88;67.13;102327.03;5031984;28;20638;-70
2021/03/19 10:08:28;;;;;;;5.43;2.28;;;;;;;5.60;62.85;102325.00;5034487;28;20036;-71
2021/03/19 10:11:06;;;;;;;2.55;1.98;;;;;;;5.55;60.86;102322.84;5030487;28;20037;-71
2021/03/19 10:13:33;;;;;;;4.78;1.73;;;;;;;5.14;62.42;102320.44;5032879;28;21051;-70
2021/03/19 10:15:58;;;;;;;5.30;1.60;;;;;;;5.14;62.55;102328.41;5036000;28;20025;-70
2021/03/19 10:18:34;;;;;;;3.17;2.13;;;;;;;4.78;61.57;102316.59;5032630;28;20092;-72
2021/03/19 10:21:06;;;;;;;4.65;2.05;;;;;;;4.96;62.00;102314.53;5035323;28;20021;-70
2021/03/19 10:23:40;;;;;;;3.92;2.00;;;;;;;4.90;59.49;102312.59;5036866;28;20155;-70
2021/03/19 10:26:27;;;;;;;3.45;1.92;;;;;;;4.54;60.63;102317.53;5034561;28;20144;-70
2021/03/19 10:28:59;;;;;;;3.53;1.75;;;;;;;4.64;60.29;102312.00;5037142;28;20033;-71
2021/03/19 10:31:27;;;;;;;4.72;2.30;;;;;;;4.75;61.27;102322.28;5032294;28;20115;-71
2021/03/19 10:34:03;;;;;;;3.22;1.80;;;;;;;4.72;59.65;102315.47;5032856;28;20031;-71
2021/03/19 10:36:43;;;;;;;4.10;1.75;;;;;;;4.79;59.50;102318.25;5031897;28;20086;-70
2021/03/19 10:39:52;;;;;;;4.50;2.17;;;;;;;4.85;59.36;102313.13;5032597;28;20020;-70
2021/03/19 10:42:34;;;;;;;4.22;2.00;;;;;;;4.89;58.83;102313.59;5032228;28;20045;-70
2021/03/19 10:45:18;;;;;;;4.25;2.10;;;;;;;4.91;57.72;102314.25;5040429;28;20061;-70
2021/03/19 10:47:59;;;;;;;3.70;1.77;;;;;;;5.16;57.52;102317.59;5033187;28;20920;-70
2021/03/19 10:50:35;;;;;;;5.18;2.55;;;;;;;5.33;57.71;102318.34;5037784;28;20025;-70
2021/03/19 10:53:17;;;;;;;5.18;2.90;;;;;;;5.67;55.93;102326.78;5038040;28;20390;-71
2021/03/19 10:55:47;;;;;;;5.35;3.20;;;;;;;5.46;55.07;102331.91;5038825;28;20044;-70
2021/03/19 10:58:19;;;;;;;6.47;3.58;;;;;;;4.92;55.25;102333.66;5036054;28;20459;-71
2021/03/19 11:00:46;;;;;;;9.60;4.43;;;;;;;4.75;57.46;102336.38;5032554;28;21433;-71
2021/03/19 11:03:37;;;;;;;6.50;3.22;;;;;;;4.54;57.80;102342.25;5035087;28;20026;-70
2021/03/19 11:06:07;;;;;;;5.03;2.92;;;;;;;4.34;59.08;102340.94;5031589;28;20029;-72
2021/03/19 11:08:33;;;;;;;4.65;2.40;;;;;;;4.44;59.32;102346.88;5033259;28;20511;-70
2021/03/19 11:10:59;;;;;;;2.65;1.60;;;;;;;4.28;59.54;102341.59;5030284;28;20055;-70
2021/03/19 11:13:30;;;;;;;5.30;1.90;;;;;;;4.07;59.68;102342.13;5031357;28;20550;-71
2021/03/19 11:16:04;;;;;;;2.65;1.60;;;;;;;3.73;60.27;102352.88;5034149;28;20041;-70
2021/03/19 11:18:36;;;;;;;5.53;2.00;;;;;;;3.40;61.57;102357.25;5030033;28;20487;-70
2021/03/19 11:21:08;;;;;;;3.95;2.38;;;;;;;3.09;63.92;102372.06;5031198;28;20033;-70
2021/03/19 11:23:40;;;;;;;7.20;2.22;;;;;;;2.88;65.94;102369.84;5032637;28;20376;-70
2021/03/19 11:26:30;;;;;;;4.35;2.53;;;;;;;2.82;66.10;102379.22;5034644;28;20025;-71
2021/03/19 11:29:17;;;;;;;4.18;1.50;;;;;;;2.91;65.05;102380.09;5033624;28;20029;-70
2021/03/19 11:32:06;;;;;;;4.53;1.73;;;;;;;3.14;64.26;102386.50;5031491;28;20091;-70
2021/03/19 11:34:41;;;;;;;2.55;1.50;;;;;;;3.27;62.50;102378.09;5036079;28;20530;-70
2021/03/19 11:37:28;;;;;;;4.07;1.77;;;;;;;3.53;61.77;102376.19;5030627;28;20041;-70
2021/03/19 11:40:19;;;;;;;5.38;2.63;;;;;;;4.02;61.35;102376.28;5036883;28;20434;-70
2021/03/19 11:42:48;;;;;;;6.63;3.50;;;;;;;4.37;59.84;102375.09;5032453;28;20036;-70
2021/03/19 11:45:19;;;;;;;4.60;2.40;;;;;;;4.74;59.65;102374.53;5039027;28;20103;-70
2021/03/19 11:48:20;;;;;;;4.18;1.83;;;;;;;5.37;56.42;102378.94;5030993;28;21018;-70
2021/03/19 11:51:08;;;;;;;2.75;1.23;;;;;;;5.62;56.25;102376.19;5024081;28;20045;-70